KMOB/MOB METAR and TAF weather

Enter ICAO airport designator
Station Type Date Time Source
KMOB METAR 2020/03/29 14:56 UTC NOAA

KMOB 291456Z 35008KT 10SM FEW018 FEW033 SCT055 24/16 A3013 RMK AO2 SLP202 T02390161 51024


Station Type Date Time Source
KMOB Decoded METAR 2020/03/29 14:56 UTC NOAA

MOBILE REGIONAL AIRPORT, AL, United States (KMOB) 30-41N 88-14W 67M
Mar 29, 2020 - 10:56 AM EDT / 2020.03.29 1456 UTC
Wind: from the N (350 degrees) at 9 MPH (8 KT):0
Visibility: 10 mile(s):0
Sky conditions: partly cloudy
Temperature: 75.0 F (23.9 C)
Dew Point: 61.0 F (16.1 C)
Relative Humidity: 61%
Pressure (altimeter): 30.13 in. Hg (1020 hPa)
Pressure tendency: 0.07 inches (2.4 hPa) higher than three hours ago
ob: KMOB 291456Z 35008KT 10SM FEW018 FEW033 SCT055 24/16 A3013 RMK AO2 SLP202 T02390161 51024
cycle: 15

Station Type Date Time Source
KMOB TAF 2020/03/29 14:06 UTC NOAA

TAF KMOB 291404Z 2914/3012 33009G15KT P6SM VCSH FEW025 BKN045
FM291800 36007KT P6SM SCT040 BKN060

Example: see airport list